createdAt,value
2018-04-27T00:02:26.050Z,3.10
2018-04-27T00:04:53.586Z,3.23
2018-04-27T00:07:21.094Z,3.10
2018-04-27T00:09:48.601Z,3.63
2018-04-27T00:12:16.115Z,3.03
2018-04-27T00:14:43.632Z,3.10
2018-04-27T00:17:11.139Z,2.93
2018-04-27T00:19:38.663Z,3.07
2018-04-27T00:22:06.195Z,3.17
2018-04-27T00:24:33.721Z,2.93
2018-04-27T00:27:01.244Z,3.00
2018-04-27T00:29:28.755Z,3.03
2018-04-27T00:31:56.283Z,3.60
2018-04-27T00:34:23.832Z,3.47
2018-04-27T00:36:51.378Z,3.47
2018-04-27T00:39:18.908Z,3.07
2018-04-27T00:41:46.428Z,3.63
2018-04-27T00:44:13.956Z,4.10
2018-04-27T00:46:41.486Z,4.00
2018-04-27T00:49:09.006Z,3.33
2018-04-27T00:51:36.534Z,3.80
2018-04-27T00:54:04.048Z,3.37
2018-04-27T00:56:31.577Z,3.70
2018-04-27T00:58:59.085Z,4.23
2018-04-27T01:01:26.596Z,4.10
2018-04-27T01:03:54.130Z,4.40
2018-04-27T01:06:21.659Z,4.40
2018-04-27T01:08:49.180Z,4.77
2018-04-27T01:11:16.706Z,4.40
2018-04-27T01:13:44.237Z,4.70
2018-04-27T01:16:11.755Z,4.70
2018-04-27T01:18:39.284Z,4.80
2018-04-27T01:21:06.804Z,4.97
2018-04-27T01:23:34.322Z,4.90
2018-04-27T01:26:01.836Z,4.90
2018-04-27T01:28:29.352Z,4.47
2018-04-27T01:30:56.853Z,5.60
2018-04-27T01:33:24.371Z,5.60
2018-04-27T01:35:51.895Z,5.20
2018-04-27T01:38:19.416Z,5.50
2018-04-27T01:40:46.935Z,5.73
2018-04-27T01:43:14.444Z,6.07
2018-04-27T01:45:41.962Z,6.17
2018-04-27T01:48:09.484Z,5.33
2018-04-27T01:50:37.013Z,6.47
2018-04-27T01:53:04.536Z,5.40
2018-04-27T01:55:32.051Z,5.50
2018-04-27T01:57:59.560Z,6.63
2018-04-27T02:00:27.076Z,6.23
2018-04-27T02:02:54.611Z,6.13
2018-04-27T02:05:22.143Z,6.97
2018-04-27T02:07:49.664Z,6.57
2018-04-27T02:10:17.184Z,6.03
2018-04-27T02:12:44.697Z,6.20
2018-04-27T02:15:12.215Z,6.50
2018-04-27T02:17:39.730Z,6.03
2018-04-27T02:20:07.248Z,5.77
2018-04-27T02:22:34.760Z,6.13
2018-04-27T02:25:02.285Z,6.70
2018-04-27T02:27:29.808Z,6.63
2018-04-27T02:29:57.324Z,6.43
2018-04-27T02:32:24.845Z,5.97
2018-04-27T02:34:52.360Z,5.77
2018-04-27T02:37:19.879Z,6.23
2018-04-27T02:39:47.407Z,6.07
2018-04-27T02:42:14.916Z,6.10
2018-04-27T02:44:42.494Z,5.97
2018-04-27T02:47:09.985Z,6.67
2018-04-27T02:49:37.493Z,6.00
2018-04-27T02:52:05.012Z,6.73
2018-04-27T02:54:32.543Z,5.90
2018-04-27T02:57:00.065Z,6.17
2018-04-27T02:59:27.596Z,6.63
2018-04-27T03:01:55.103Z,5.83
2018-04-27T03:04:22.631Z,6.83
2018-04-27T03:06:50.477Z,6.23
2018-04-27T03:09:17.988Z,6.20
2018-04-27T03:11:45.516Z,5.93
2018-04-27T03:14:13.023Z,6.43
2018-04-27T03:16:40.543Z,6.80
2018-04-27T03:19:08.069Z,6.93
2018-04-27T03:21:35.580Z,5.77
2018-04-27T03:24:03.204Z,6.20
2018-04-27T03:26:30.652Z,6.47
2018-04-27T03:28:58.162Z,5.93
2018-04-27T03:31:25.692Z,6.30
2018-04-27T03:33:53.208Z,6.00
2018-04-27T03:36:20.728Z,6.73
2018-04-27T03:38:48.232Z,6.33
2018-04-27T03:41:15.748Z,6.33
2018-04-27T03:43:43.260Z,6.80
2018-04-27T03:46:10.800Z,6.70
2018-04-27T03:48:38.323Z,6.13
2018-04-27T03:51:05.855Z,6.30
2018-04-27T03:53:33.388Z,6.80
2018-04-27T03:56:00.903Z,7.27
2018-04-27T03:58:28.435Z,6.53
2018-04-27T04:01:07.826Z,7.23
2018-04-27T04:03:47.012Z,6.10
2018-04-27T04:06:14.530Z,6.97
2018-04-27T04:08:42.039Z,6.63
2018-04-27T04:11:09.546Z,8.10
2018-04-27T04:13:37.076Z,8.67
2018-04-27T04:16:04.612Z,8.47
2018-04-27T04:18:32.140Z,9.30
2018-04-27T04:20:59.652Z,8.80
2018-04-27T04:23:27.174Z,9.10
2018-04-27T04:25:54.687Z,8.77
2018-04-27T04:28:22.211Z,8.93
2018-04-27T04:30:49.731Z,8.17
2018-04-27T04:33:17.244Z,8.77
2018-04-27T04:35:44.755Z,7.03
2018-04-27T04:38:12.267Z,7.53
2018-04-27T04:40:39.788Z,8.20
2018-04-27T04:43:07.305Z,6.70
2018-04-27T04:45:34.833Z,7.67
2018-04-27T04:48:02.349Z,7.40
2018-04-27T04:50:29.862Z,8.20
2018-04-27T04:52:57.386Z,7.27
2018-04-27T04:55:24.911Z,8.60
2018-04-27T04:57:52.432Z,8.97
2018-04-27T05:00:19.960Z,7.73
2018-04-27T05:02:47.584Z,8.43
2018-04-27T05:05:15.027Z,8.03
2018-04-27T05:07:42.547Z,8.10
2018-04-27T05:10:10.070Z,11.73
2018-04-27T05:12:37.639Z,8.67
2018-04-27T05:15:05.155Z,7.53
2018-04-27T05:17:32.677Z,8.20
2018-04-27T05:19:59.674Z,8.57
2018-04-27T05:22:27.206Z,9.27
2018-04-27T05:24:54.726Z,8.83
2018-04-27T05:27:22.247Z,8.03
2018-04-27T05:29:49.794Z,8.13
2018-04-27T05:32:17.314Z,8.77
2018-04-27T05:34:44.851Z,9.33
2018-04-27T05:37:12.365Z,9.03
2018-04-27T05:39:39.880Z,8.00
2018-04-27T05:42:07.399Z,8.67
2018-04-27T05:44:34.915Z,9.27
2018-04-27T05:47:02.422Z,9.53
2018-04-27T05:49:30.007Z,9.57
2018-04-27T05:51:57.492Z,9.30
2018-04-27T05:54:25.026Z,9.07
2018-04-27T05:56:52.608Z,9.33
2018-04-27T05:59:20.122Z,11.73
2018-04-27T06:01:48.827Z,14.40
2018-04-27T06:04:16.403Z,11.47
2018-04-27T06:06:44.022Z,11.73
2018-04-27T06:09:11.487Z,8.90
2018-04-27T06:11:39.097Z,9.87
2018-04-27T06:14:06.625Z,9.23
2018-04-27T06:16:34.157Z,10.47
2018-04-27T07:40:58.703Z,10.80
2018-04-27T07:43:26.229Z,8.80
2018-04-27T07:45:53.752Z,7.23
2018-04-27T07:48:21.280Z,8.43
2018-04-27T07:50:48.806Z,8.00
2018-04-27T07:53:16.335Z,7.77
2018-04-27T07:55:43.851Z,7.80
2018-04-27T07:58:11.380Z,7.50
2018-04-27T08:00:38.982Z,6.70
2018-04-27T08:03:06.504Z,7.70
2018-04-27T08:05:34.028Z,6.97
2018-04-27T08:08:01.558Z,7.33
2018-04-27T08:10:29.310Z,7.57
2018-04-27T08:12:56.831Z,7.17
2018-04-27T08:15:24.343Z,6.53
2018-04-27T08:17:51.864Z,6.80
2018-04-27T08:20:24.887Z,5.57
2018-04-27T08:22:52.401Z,6.27
2018-04-27T08:25:19.907Z,6.30
2018-04-27T08:27:47.421Z,5.60
2018-04-27T08:30:14.974Z,6.97
2018-04-27T08:32:42.508Z,5.67
2018-04-27T08:35:10.037Z,6.15
2018-04-27T08:37:37.562Z,6.78
2018-04-27T08:40:05.093Z,6.07
2018-04-27T08:42:32.612Z,5.43
2018-04-27T08:45:00.141Z,5.40
2018-04-27T08:47:27.676Z,6.22
2018-04-27T08:49:55.199Z,5.30
2018-04-27T08:52:22.715Z,6.07
2018-04-27T08:54:50.249Z,5.68
2018-04-27T08:57:17.772Z,6.25
2018-04-27T08:59:45.303Z,4.28
2018-04-27T09:02:12.817Z,4.93
2018-04-27T09:04:40.348Z,5.35
2018-04-27T09:07:07.864Z,5.93
2018-04-27T09:09:35.405Z,5.00
2018-04-27T09:12:02.924Z,5.60
2018-04-27T09:14:30.453Z,5.15
2018-04-27T09:16:58.023Z,4.12
2018-04-27T09:19:25.559Z,5.05
2018-04-27T09:21:53.092Z,4.65
2018-04-27T09:24:20.627Z,5.03
2018-04-27T09:26:48.159Z,4.28
2018-04-27T09:29:15.679Z,4.45
2018-04-27T09:31:43.200Z,4.47
2018-04-27T09:34:10.728Z,10.38
2018-04-27T09:36:38.250Z,10.02
2018-04-27T09:39:05.779Z,3.72
2018-04-27T09:41:33.326Z,3.42
2018-04-27T09:44:00.855Z,3.30
2018-04-27T09:46:28.385Z,3.75
2018-04-27T09:48:55.919Z,3.78
2018-04-27T09:51:23.446Z,3.45
2018-04-27T09:53:50.963Z,2.90
2018-04-27T09:56:18.487Z,3.22
2018-04-27T09:58:46.003Z,3.25
2018-04-27T10:01:13.518Z,3.05
2018-04-27T10:03:41.042Z,3.22
2018-04-27T10:06:08.577Z,3.25
2018-04-27T10:08:36.092Z,2.87
2018-04-27T10:11:03.624Z,3.12
2018-04-27T10:13:31.148Z,3.78
2018-04-27T10:15:58.664Z,3.37
2018-04-27T10:18:26.192Z,3.22
2018-04-27T10:20:53.721Z,3.70
2018-04-27T10:23:21.248Z,2.72
2018-04-27T10:25:48.775Z,2.90
2018-04-27T10:28:16.302Z,3.20
2018-04-27T10:30:43.884Z,4.22
2018-04-27T10:33:11.366Z,3.37
2018-04-27T10:35:38.897Z,3.03
2018-04-27T10:38:06.427Z,3.17
2018-04-27T10:40:33.953Z,3.20
2018-04-27T10:43:01.539Z,3.22
2018-04-27T10:45:29.023Z,3.40
2018-04-27T10:47:56.544Z,3.12
2018-04-27T10:50:24.068Z,3.20
2018-04-27T10:52:51.607Z,2.90
2018-04-27T10:55:19.123Z,3.45
2018-04-27T10:57:46.648Z,3.40
2018-04-27T11:00:14.168Z,2.90
2018-04-27T11:02:43.466Z,2.70
2018-04-27T11:05:10.983Z,2.78
2018-04-27T11:07:38.503Z,2.87
2018-04-27T11:10:06.014Z,3.23
2018-04-27T11:12:33.527Z,3.63
2018-04-27T11:15:01.052Z,3.90
2018-04-27T11:17:28.589Z,3.70
2018-04-27T11:19:56.100Z,4.17
2018-04-27T11:22:23.611Z,4.13
2018-04-27T11:24:51.136Z,3.90
2018-04-27T11:27:18.660Z,4.37
2018-04-27T11:29:46.224Z,3.80
2018-04-27T11:32:13.748Z,4.43
2018-04-27T11:34:41.260Z,3.20
2018-04-27T11:37:08.780Z,3.43
2018-04-27T11:39:36.307Z,4.00
2018-04-27T11:42:03.837Z,3.60
2018-04-27T11:44:31.357Z,3.47
2018-04-27T11:46:58.886Z,4.60
2018-04-27T11:49:26.401Z,4.73
2018-04-27T11:51:53.910Z,4.83
2018-04-27T11:54:21.431Z,4.67
2018-04-27T11:56:48.950Z,4.63
2018-04-27T11:59:16.467Z,4.77
2018-04-27T12:01:44.078Z,6.70
2018-04-27T12:04:11.536Z,4.33
2018-04-27T12:06:39.059Z,4.63
2018-04-27T12:09:06.573Z,4.63
2018-04-27T12:11:34.104Z,4.53
2018-04-27T12:14:01.632Z,3.93
2018-04-27T12:16:29.165Z,3.17
2018-04-27T12:18:56.707Z,3.33
2018-04-27T12:21:24.224Z,3.07
2018-04-27T12:23:51.756Z,3.07
2018-04-27T12:26:19.290Z,3.27
2018-04-27T12:28:46.803Z,3.77
2018-04-27T12:31:14.355Z,2.73
2018-04-27T12:33:41.875Z,2.93
2018-04-27T12:36:09.401Z,3.87
2018-04-27T12:38:36.924Z,2.97
2018-04-27T12:41:04.435Z,3.70
2018-04-27T12:43:31.951Z,4.00
2018-04-27T12:45:59.489Z,4.70
2018-04-27T12:48:27.015Z,4.17
2018-04-27T12:50:54.576Z,8.07
2018-04-27T12:53:22.096Z,4.67
2018-04-27T12:55:49.623Z,4.50
2018-04-27T12:58:18.078Z,4.50
2018-04-27T13:00:45.596Z,4.10
2018-04-27T13:03:13.111Z,4.33
2018-04-27T13:05:40.628Z,4.17
2018-04-27T13:08:08.174Z,3.57
2018-04-27T13:10:35.683Z,4.07
2018-04-27T13:13:03.221Z,4.00
2018-04-27T13:15:30.743Z,4.03
2018-04-27T13:17:58.269Z,4.50
2018-04-27T13:20:25.793Z,4.03
2018-04-27T13:22:53.312Z,4.03
2018-04-27T13:25:20.823Z,4.50
2018-04-27T13:27:48.356Z,3.87
2018-04-27T13:30:15.875Z,3.90
2018-04-27T13:32:43.400Z,3.80
2018-04-27T13:35:10.942Z,3.77
2018-04-27T13:37:38.476Z,4.07
2018-04-27T13:40:05.996Z,3.60
2018-04-27T13:42:33.512Z,3.93
2018-04-27T13:45:01.034Z,3.60
2018-04-27T13:47:28.560Z,3.47
2018-04-27T13:49:56.078Z,3.67
2018-04-27T13:52:23.609Z,3.27
2018-04-27T13:54:51.131Z,3.57
2018-04-27T13:57:18.657Z,3.47
2018-04-27T13:59:46.186Z,3.30
2018-04-27T14:02:13.710Z,2.90
2018-04-27T14:04:41.234Z,3.10
2018-04-27T14:07:08.768Z,2.63
2018-04-27T14:09:36.280Z,2.97
2018-04-27T14:12:03.811Z,3.27
2018-04-27T14:14:31.337Z,3.00
2018-04-27T14:16:58.868Z,3.07
2018-04-27T14:19:26.384Z,3.37
2018-04-27T14:21:53.923Z,3.40
2018-04-27T14:24:21.448Z,3.47
2018-04-27T14:26:49.030Z,3.00
2018-04-27T14:29:16.512Z,2.87
2018-04-27T14:31:44.025Z,2.73
2018-04-27T14:34:11.550Z,2.80
2018-04-27T14:36:39.083Z,3.17
2018-04-27T14:39:06.598Z,2.70
2018-04-27T14:41:34.127Z,2.30
2018-04-27T14:44:01.660Z,3.17
2018-04-27T14:46:29.243Z,2.93
2018-04-27T14:48:56.814Z,2.40
2018-04-27T14:51:24.280Z,2.67
2018-04-27T14:53:51.812Z,2.70
2018-04-27T14:56:19.332Z,3.30
2018-04-27T14:58:46.850Z,3.30
2018-04-27T15:01:14.370Z,3.67
2018-04-27T15:03:41.874Z,3.43
2018-04-27T15:06:09.390Z,3.60
2018-04-27T15:08:36.899Z,3.20
2018-04-27T15:11:04.436Z,2.80
2018-04-27T15:13:31.982Z,3.00
2018-04-27T15:15:59.555Z,3.40
2018-04-27T15:18:27.165Z,3.10
2018-04-27T15:20:54.637Z,3.13
2018-04-27T15:23:22.183Z,2.40
2018-04-27T15:25:49.714Z,3.20
2018-04-27T15:28:17.260Z,2.97
2018-04-27T15:30:44.782Z,2.60
2018-04-27T15:33:12.294Z,2.73
2018-04-27T15:35:39.820Z,3.10
2018-04-27T15:38:07.339Z,3.10
2018-04-27T15:40:34.852Z,2.40
2018-04-27T15:43:02.370Z,2.67
2018-04-27T15:45:29.890Z,2.80
2018-04-27T15:47:57.412Z,2.60
2018-04-27T15:50:24.946Z,3.30
2018-04-27T15:52:52.476Z,3.00
2018-04-27T15:55:20.003Z,2.50
2018-04-27T15:57:47.538Z,2.60
2018-04-27T16:00:15.056Z,2.47
2018-04-27T16:02:42.577Z,2.80
2018-04-27T16:05:10.103Z,2.60
2018-04-27T16:07:37.631Z,2.47
2018-04-27T16:10:05.156Z,2.20
2018-04-27T16:12:32.713Z,2.50
2018-04-27T16:15:00.267Z,2.40
2018-04-27T16:17:27.773Z,2.20
2018-04-27T16:19:55.421Z,2.20
2018-04-27T16:22:22.996Z,2.07
2018-04-27T16:24:50.524Z,1.80
2018-04-27T16:27:18.095Z,2.10
2018-04-27T16:29:45.615Z,2.10
2018-04-27T16:32:13.128Z,2.33
2018-04-27T16:34:40.654Z,2.10
2018-04-27T16:37:08.196Z,2.30
2018-04-27T16:39:35.770Z,2.30
2018-04-27T16:42:03.404Z,1.93
2018-04-27T16:44:30.916Z,1.87
2018-04-27T16:46:58.476Z,2.20
2018-04-27T16:49:26.022Z,2.40
2018-04-27T16:51:53.569Z,2.43
2018-04-27T16:54:21.681Z,1.97
2018-04-27T16:56:49.208Z,2.00
2018-04-27T16:59:16.732Z,2.10
2018-04-27T17:01:44.265Z,2.97
2018-04-27T17:04:11.785Z,2.60
2018-04-27T17:06:39.313Z,2.13
2018-04-27T17:09:06.857Z,2.30
2018-04-27T17:11:34.399Z,2.20
2018-04-27T17:14:01.992Z,2.00
2018-04-27T17:16:29.515Z,2.13
2018-04-27T17:18:57.059Z,2.17
2018-04-27T17:21:24.592Z,1.90
2018-04-27T17:23:52.230Z,2.23
2018-04-27T17:26:19.799Z,2.30
2018-04-27T17:28:47.356Z,2.50
2018-04-27T17:31:14.911Z,2.37
2018-04-27T17:33:42.492Z,2.00
2018-04-27T17:36:10.108Z,2.53
2018-04-27T17:38:37.659Z,2.13
2018-04-27T17:41:05.173Z,2.07
2018-04-27T17:43:32.801Z,2.07
2018-04-27T17:46:00.355Z,1.87
2018-04-27T17:48:27.896Z,2.03
2018-04-27T17:50:55.629Z,2.33
2018-04-27T17:53:23.362Z,2.17
2018-04-27T17:56:03.785Z,2.23
2018-04-27T17:58:31.347Z,1.90
2018-04-27T18:00:58.879Z,2.47
2018-04-27T18:03:26.402Z,2.53
2018-04-27T18:05:53.947Z,5.50
2018-04-27T18:08:21.471Z,6.63
2018-04-27T18:10:49.000Z,3.00
2018-04-27T18:13:16.532Z,2.27
2018-04-27T18:15:44.060Z,2.20
2018-04-27T18:18:11.723Z,2.97
2018-04-27T18:20:39.219Z,2.37
2018-04-27T18:23:06.744Z,2.70
2018-04-27T18:25:34.281Z,2.90
2018-04-27T18:28:01.821Z,3.00
2018-04-27T18:30:29.428Z,3.30
2018-04-27T18:32:57.036Z,2.50
2018-04-27T18:35:24.579Z,2.43
2018-04-27T18:37:52.140Z,2.13
2018-04-27T18:40:19.670Z,2.70
2018-04-27T18:42:47.234Z,2.40
2018-04-27T18:45:14.735Z,2.87
2018-04-27T18:47:42.312Z,2.70
2018-04-27T18:50:09.864Z,2.60
2018-04-27T18:52:37.395Z,2.90
2018-04-27T18:55:04.925Z,3.13
2018-04-27T18:57:32.435Z,2.90
2018-04-27T18:59:59.957Z,2.90
2018-04-27T19:02:27.485Z,3.10
2018-04-27T19:04:55.111Z,3.27
2018-04-27T19:07:22.720Z,3.23
2018-04-27T19:09:50.254Z,3.37
2018-04-27T19:12:17.809Z,2.90
2018-04-27T19:14:45.332Z,3.57
2018-04-27T19:17:14.738Z,4.07
2018-04-27T19:19:42.912Z,3.20
2018-04-27T19:22:10.443Z,3.30
2018-04-27T19:24:47.643Z,3.50
2018-04-27T19:27:15.164Z,3.43
2018-04-27T19:29:42.735Z,3.40
2018-04-27T19:32:10.278Z,4.20
2018-04-27T19:34:37.807Z,3.40
2018-04-27T19:37:05.337Z,3.40
2018-04-27T19:39:32.847Z,3.63
2018-04-27T19:42:00.391Z,3.17
2018-04-27T19:44:27.974Z,3.83
2018-04-27T19:46:55.505Z,4.10
2018-04-27T19:49:23.037Z,5.03
2018-04-27T19:51:50.561Z,4.00
2018-04-27T19:54:18.100Z,4.07
2018-04-27T19:56:45.655Z,3.40
2018-04-27T19:59:13.220Z,3.30
2018-04-27T20:01:40.750Z,3.67
2018-04-27T20:04:08.275Z,3.80
2018-04-27T20:06:35.800Z,3.73
2018-04-27T20:09:03.322Z,3.57
2018-04-27T20:11:30.853Z,3.80
2018-04-27T20:13:58.439Z,4.10
2018-04-27T20:16:36.809Z,4.13
2018-04-27T20:19:04.348Z,4.23
2018-04-27T20:21:31.938Z,4.50
2018-04-27T20:24:06.136Z,4.77
2018-04-27T20:26:33.720Z,4.70
2018-04-27T20:29:01.265Z,4.50
2018-04-27T20:31:28.855Z,4.87
2018-04-27T20:33:56.383Z,4.40
2018-04-27T20:36:23.908Z,4.87
2018-04-27T20:38:51.437Z,4.93
2018-04-27T20:41:18.951Z,5.17
2018-04-27T20:43:47.855Z,5.63
2018-04-27T20:46:15.393Z,5.23
2018-04-27T20:48:42.924Z,5.13
2018-04-27T20:51:10.458Z,5.40
2018-04-27T20:53:41.945Z,5.70
2018-04-27T20:56:09.465Z,5.27
2018-04-27T20:58:36.983Z,4.90
2018-04-27T21:01:04.536Z,5.77
2018-04-27T21:03:32.071Z,5.50
2018-04-27T21:05:59.599Z,5.47
2018-04-27T21:08:27.125Z,5.03
2018-04-27T21:10:54.704Z,5.97
2018-04-27T21:13:22.249Z,8.07
2018-04-27T21:15:49.778Z,5.63
2018-04-27T21:18:17.297Z,5.73
2018-04-27T21:20:44.825Z,6.30
2018-04-27T21:23:12.359Z,5.57
2018-04-27T21:25:39.905Z,6.10
2018-04-27T21:31:11.819Z,6.20
2018-04-27T21:33:39.355Z,6.50
2018-04-27T21:36:06.903Z,6.27
2018-04-27T21:38:50.220Z,5.97
2018-04-27T21:41:18.547Z,6.70
2018-04-27T21:43:46.140Z,6.43
2018-04-27T21:46:13.668Z,6.27
2018-04-27T21:48:41.188Z,5.93
2018-04-27T21:51:08.723Z,6.47
2018-04-27T21:53:36.255Z,6.60
2018-04-27T21:56:03.796Z,6.30
2018-04-27T21:58:31.326Z,6.20
2018-04-27T22:00:58.897Z,6.50
2018-04-27T22:03:26.417Z,6.10
2018-04-27T22:06:08.359Z,5.73
2018-04-27T22:08:43.476Z,6.30
2018-04-27T22:11:15.924Z,6.20
2018-04-27T22:13:43.450Z,5.77
2018-04-27T22:19:15.619Z,5.90
2018-04-27T22:21:43.131Z,6.00
2018-04-27T22:24:10.656Z,5.57
2018-04-27T22:26:40.943Z,6.33
2018-04-27T22:32:22.419Z,6.47
2018-04-27T22:34:54.481Z,6.20
2018-04-27T22:37:22.727Z,6.53
2018-04-27T22:39:50.267Z,6.43
2018-04-27T22:42:22.258Z,6.43
2018-04-27T22:45:05.284Z,6.20
2018-04-27T22:47:32.852Z,5.83
2018-04-27T22:50:03.065Z,6.43
2018-04-27T22:52:34.921Z,6.10
2018-04-27T22:55:02.483Z,6.20
2018-04-27T22:57:36.587Z,6.83
2018-04-27T23:00:18.075Z,6.47
2018-04-27T23:02:45.607Z,5.80
2018-04-27T23:05:15.012Z,6.10
2018-04-27T23:07:47.042Z,6.03
2018-04-27T23:10:14.559Z,6.50
2018-04-27T23:12:42.784Z,6.53
2018-04-27T23:15:10.302Z,6.33
2018-04-27T23:17:37.906Z,6.80
2018-04-27T23:20:06.279Z,6.23
2018-04-27T23:22:39.611Z,5.90
2018-04-27T23:25:10.155Z,7.20
2018-04-27T23:27:37.679Z,6.13
2018-04-27T23:30:06.045Z,6.87
2018-04-27T23:32:33.563Z,6.30
2018-04-27T23:35:01.091Z,6.83
2018-04-27T23:37:28.621Z,6.27
2018-04-27T23:39:56.140Z,6.10
2018-04-27T23:42:25.129Z,6.40
2018-04-27T23:44:52.643Z,6.90
2018-04-27T23:47:20.172Z,6.53
2018-04-27T23:49:47.716Z,6.57
2018-04-27T23:52:15.236Z,6.00
2018-04-27T23:54:42.763Z,6.87
2018-04-27T23:57:10.283Z,6.73
2018-04-27T23:59:39.642Z,6.57
